sensor_id;sensor_type;location;lat;lon;timestamp;P1;durP1;ratioP1;P2;durP2;ratioP2
11731;SDS011;5922;53.734;10.258;2023-04-24T00:01:49;4.60;;;3.63;;
11731;SDS011;5922;53.734;10.258;2023-04-24T00:04:17;6.23;;;3.77;;
11731;SDS011;5922;53.734;10.258;2023-04-24T00:06:44;3.63;;;3.03;;
11731;SDS011;5922;53.734;10.258;2023-04-24T00:09:14;5.80;;;3.90;;
11731;SDS011;5922;53.734;10.258;2023-04-24T00:11:43;4.23;;;3.40;;
11731;SDS011;5922;53.734;10.258;2023-04-24T00:14:10;3.87;;;3.53;;
11731;SDS011;5922;53.734;10.258;2023-04-24T00:16:37;4.13;;;3.70;;
11731;SDS011;5922;53.734;10.258;2023-04-24T00:19:05;7.20;;;3.63;;
11731;SDS011;5922;53.734;10.258;2023-04-24T00:21:32;5.70;;;3.80;;
11731;SDS011;5922;53.734;10.258;2023-04-24T00:23:59;4.53;;;4.13;;
11731;SDS011;5922;53.734;10.258;2023-04-24T00:26:26;6.50;;;4.20;;
11731;SDS011;5922;53.734;10.258;2023-04-24T00:28:55;4.57;;;3.90;;
11731;SDS011;5922;53.734;10.258;2023-04-24T00:31:22;4.53;;;4.13;;
11731;SDS011;5922;53.734;10.258;2023-04-24T00:33:50;4.63;;;4.07;;
11731;SDS011;5922;53.734;10.258;2023-04-24T00:36:17;4.80;;;4.00;;
11731;SDS011;5922;53.734;10.258;2023-04-24T00:38:45;4.27;;;3.93;;
11731;SDS011;5922;53.734;10.258;2023-04-24T00:41:12;4.10;;;3.80;;
11731;SDS011;5922;53.734;10.258;2023-04-24T00:43:40;4.30;;;3.63;;
11731;SDS011;5922;53.734;10.258;2023-04-24T00:46:09;5.17;;;4.13;;
11731;SDS011;5922;53.734;10.258;2023-04-24T00:48:36;5.63;;;4.40;;
11731;SDS011;5922;53.734;10.258;2023-04-24T00:51:04;4.33;;;3.93;;
11731;SDS011;5922;53.734;10.258;2023-04-24T00:53:31;6.67;;;4.10;;
11731;SDS011;5922;53.734;10.258;2023-04-24T00:55:58;4.53;;;4.13;;
11731;SDS011;5922;53.734;10.258;2023-04-24T00:58:26;4.57;;;4.07;;
11731;SDS011;5922;53.734;10.258;2023-04-24T01:00:54;5.57;;;4.10;;
11731;SDS011;5922;53.734;10.258;2023-04-24T01:03:24;6.47;;;4.67;;
11731;SDS011;5922;53.734;10.258;2023-04-24T01:05:52;5.70;;;4.40;;
11731;SDS011;5922;53.734;10.258;2023-04-24T01:08:20;4.67;;;4.27;;
11731;SDS011;5922;53.734;10.258;2023-04-24T01:10:50;4.90;;;4.13;;
11731;SDS011;5922;53.734;10.258;2023-04-24T01:13:18;6.77;;;4.57;;
11731;SDS011;5922;53.734;10.258;2023-04-24T01:15:46;10.67;;;4.87;;
11731;SDS011;5922;53.734;10.258;2023-04-24T01:18:13;4.80;;;4.40;;
11731;SDS011;5922;53.734;10.258;2023-04-24T01:20:42;5.87;;;4.37;;
11731;SDS011;5922;53.734;10.258;2023-04-24T01:23:11;4.60;;;4.17;;
11731;SDS011;5922;53.734;10.258;2023-04-24T01:25:51;5.23;;;4.73;;
11731;SDS011;5922;53.734;10.258;2023-04-24T01:28:26;7.43;;;4.80;;
11731;SDS011;5922;53.734;10.258;2023-04-24T01:30:53;4.70;;;4.10;;
11731;SDS011;5922;53.734;10.258;2023-04-24T01:33:21;6.60;;;4.37;;
11731;SDS011;5922;53.734;10.258;2023-04-24T01:35:48;4.47;;;4.00;;
11731;SDS011;5922;53.734;10.258;2023-04-24T01:38:16;4.40;;;4.00;;
11731;SDS011;5922;53.734;10.258;2023-04-24T01:40:44;4.87;;;4.23;;
11731;SDS011;5922;53.734;10.258;2023-04-24T01:43:13;4.30;;;3.90;;
11731;SDS011;5922;53.734;10.258;2023-04-24T01:45:46;4.90;;;4.10;;
11731;SDS011;5922;53.734;10.258;2023-04-24T01:48:13;4.10;;;3.70;;
11731;SDS011;5922;53.734;10.258;2023-04-24T01:50:40;3.97;;;3.63;;
11731;SDS011;5922;53.734;10.258;2023-04-24T01:53:08;4.10;;;3.77;;
11731;SDS011;5922;53.734;10.258;2023-04-24T01:55:36;4.20;;;3.80;;
11731;SDS011;5922;53.734;10.258;2023-04-24T01:58:04;4.43;;;4.03;;
11731;SDS011;5922;53.734;10.258;2023-04-24T02:00:31;3.77;;;3.47;;
11731;SDS011;5922;53.734;10.258;2023-04-24T02:02:58;3.70;;;3.40;;
11731;SDS011;5922;53.734;10.258;2023-04-24T02:05:26;3.70;;;3.40;;
11731;SDS011;5922;53.734;10.258;2023-04-24T02:07:54;3.53;;;3.23;;
11731;SDS011;5922;53.734;10.258;2023-04-24T02:10:22;4.33;;;3.30;;
11731;SDS011;5922;53.734;10.258;2023-04-24T02:12:51;3.93;;;3.53;;
11731;SDS011;5922;53.734;10.258;2023-04-24T02:15:19;3.60;;;3.20;;
11731;SDS011;5922;53.734;10.258;2023-04-24T02:17:46;5.80;;;3.70;;
11731;SDS011;5922;53.734;10.258;2023-04-24T02:20:13;3.60;;;3.30;;
11731;SDS011;5922;53.734;10.258;2023-04-24T02:22:40;3.20;;;3.00;;
11731;SDS011;5922;53.734;10.258;2023-04-24T02:25:08;3.00;;;2.80;;
11731;SDS011;5922;53.734;10.258;2023-04-24T02:27:35;2.90;;;2.70;;
11731;SDS011;5922;53.734;10.258;2023-04-24T02:30:04;3.10;;;2.73;;
11731;SDS011;5922;53.734;10.258;2023-04-24T02:32:32;3.23;;;2.80;;
11731;SDS011;5922;53.734;10.258;2023-04-24T02:35:00;2.50;;;2.30;;
11731;SDS011;5922;53.734;10.258;2023-04-24T02:37:28;4.83;;;2.60;;
11731;SDS011;5922;53.734;10.258;2023-04-24T02:39:55;3.63;;;2.80;;
11731;SDS011;5922;53.734;10.258;2023-04-24T02:42:22;2.73;;;2.53;;
11731;SDS011;5922;53.734;10.258;2023-04-24T02:44:50;3.03;;;2.73;;
11731;SDS011;5922;53.734;10.258;2023-04-24T02:47:18;3.03;;;2.57;;
11731;SDS011;5922;53.734;10.258;2023-04-24T02:49:46;2.80;;;2.60;;
11731;SDS011;5922;53.734;10.258;2023-04-24T02:52:13;3.10;;;2.80;;
11731;SDS011;5922;53.734;10.258;2023-04-24T02:54:41;3.00;;;2.70;;
11731;SDS011;5922;53.734;10.258;2023-04-24T02:57:09;3.80;;;3.03;;
11731;SDS011;5922;53.734;10.258;2023-04-24T02:59:36;3.47;;;2.83;;
11731;SDS011;5922;53.734;10.258;2023-04-24T03:02:03;2.73;;;2.43;;
11731;SDS011;5922;53.734;10.258;2023-04-24T03:04:32;3.07;;;2.87;;
11731;SDS011;5922;53.734;10.258;2023-04-24T03:06:59;2.93;;;2.73;;
11731;SDS011;5922;53.734;10.258;2023-04-24T03:09:26;3.17;;;2.60;;
11731;SDS011;5922;53.734;10.258;2023-04-24T03:11:53;7.30;;;2.47;;
11731;SDS011;5922;53.734;10.258;2023-04-24T03:14:21;2.63;;;2.43;;
11731;SDS011;5922;53.734;10.258;2023-04-24T03:16:48;4.97;;;2.63;;
11731;SDS011;5922;53.734;10.258;2023-04-24T03:19:16;2.90;;;2.70;;
11731;SDS011;5922;53.734;10.258;2023-04-24T03:21:44;3.93;;;2.40;;
11731;SDS011;5922;53.734;10.258;2023-04-24T03:24:11;2.50;;;2.30;;
11731;SDS011;5922;53.734;10.258;2023-04-24T03:26:39;4.33;;;2.30;;
11731;SDS011;5922;53.734;10.258;2023-04-24T03:29:06;2.13;;;1.97;;
11731;SDS011;5922;53.734;10.258;2023-04-24T03:31:33;2.50;;;2.30;;
11731;SDS011;5922;53.734;10.258;2023-04-24T03:34:04;3.13;;;2.20;;
11731;SDS011;5922;53.734;10.258;2023-04-24T03:36:32;2.30;;;2.20;;
11731;SDS011;5922;53.734;10.258;2023-04-24T03:39:00;2.43;;;2.23;;
11731;SDS011;5922;53.734;10.258;2023-04-24T03:41:28;3.40;;;1.90;;
11731;SDS011;5922;53.734;10.258;2023-04-24T03:43:56;2.03;;;1.93;;
11731;SDS011;5922;53.734;10.258;2023-04-24T03:46:23;1.80;;;1.70;;
11731;SDS011;5922;53.734;10.258;2023-04-24T03:48:50;2.30;;;2.10;;
11731;SDS011;5922;53.734;10.258;2023-04-24T03:51:17;2.30;;;2.10;;
11731;SDS011;5922;53.734;10.258;2023-04-24T03:53:45;1.80;;;1.70;;
11731;SDS011;5922;53.734;10.258;2023-04-24T03:56:14;2.10;;;1.93;;
11731;SDS011;5922;53.734;10.258;2023-04-24T03:58:41;4.77;;;2.27;;
11731;SDS011;5922;53.734;10.258;2023-04-24T04:01:08;2.90;;;1.87;;
11731;SDS011;5922;53.734;10.258;2023-04-24T04:03:36;2.20;;;2.10;;
11731;SDS011;5922;53.734;10.258;2023-04-24T04:06:04;2.73;;;2.53;;
11731;SDS011;5922;53.734;10.258;2023-04-24T04:08:31;3.40;;;2.43;;
11731;SDS011;5922;53.734;10.258;2023-04-24T04:10:58;2.20;;;2.00;;
11731;SDS011;5922;53.734;10.258;2023-04-24T04:13:27;2.10;;;1.90;;
11731;SDS011;5922;53.734;10.258;2023-04-24T04:15:54;1.87;;;1.77;;
11731;SDS011;5922;53.734;10.258;2023-04-24T04:18:22;2.30;;;1.40;;
11731;SDS011;5922;53.734;10.258;2023-04-24T04:20:49;1.90;;;1.80;;
11731;SDS011;5922;53.734;10.258;2023-04-24T04:23:16;1.63;;;1.53;;
11731;SDS011;5922;53.734;10.258;2023-04-24T04:25:44;1.50;;;1.40;;
11731;SDS011;5922;53.734;10.258;2023-04-24T04:28:12;2.20;;;1.60;;
11731;SDS011;5922;53.734;10.258;2023-04-24T04:30:40;2.00;;;1.60;;
11731;SDS011;5922;53.734;10.258;2023-04-24T04:33:08;3.33;;;1.60;;
11731;SDS011;5922;53.734;10.258;2023-04-24T04:35:35;2.13;;;1.67;;
11731;SDS011;5922;53.734;10.258;2023-04-24T04:38:02;4.07;;;2.37;;
11731;SDS011;5922;53.734;10.258;2023-04-24T04:40:33;1.70;;;1.60;;
11731;SDS011;5922;53.734;10.258;2023-04-24T04:43:00;1.70;;;1.60;;
11731;SDS011;5922;53.734;10.258;2023-04-24T04:45:28;1.80;;;1.60;;
11731;SDS011;5922;53.734;10.258;2023-04-24T04:47:57;1.70;;;1.60;;
11731;SDS011;5922;53.734;10.258;2023-04-24T04:50:25;1.70;;;1.60;;
11731;SDS011;5922;53.734;10.258;2023-04-24T04:52:52;1.60;;;1.50;;
11731;SDS011;5922;53.734;10.258;2023-04-24T04:55:22;3.27;;;1.57;;
11731;SDS011;5922;53.734;10.258;2023-04-24T04:57:50;1.57;;;1.47;;
11731;SDS011;5922;53.734;10.258;2023-04-24T05:00:17;1.73;;;1.40;;
11731;SDS011;5922;53.734;10.258;2023-04-24T05:02:45;1.50;;;1.40;;
11731;SDS011;5922;53.734;10.258;2023-04-24T05:05:13;1.70;;;1.40;;
11731;SDS011;5922;53.734;10.258;2023-04-24T05:07:42;1.57;;;1.37;;
11731;SDS011;5922;53.734;10.258;2023-04-24T05:10:09;1.53;;;1.43;;
11731;SDS011;5922;53.734;10.258;2023-04-24T05:12:36;1.53;;;1.40;;
11731;SDS011;5922;53.734;10.258;2023-04-24T05:15:04;1.43;;;1.33;;
11731;SDS011;5922;53.734;10.258;2023-04-24T05:17:31;1.40;;;1.30;;
11731;SDS011;5922;53.734;10.258;2023-04-24T05:19:58;3.57;;;1.47;;
11731;SDS011;5922;53.734;10.258;2023-04-24T05:22:27;1.37;;;1.27;;
11731;SDS011;5922;53.734;10.258;2023-04-24T05:24:54;1.67;;;1.23;;
11731;SDS011;5922;53.734;10.258;2023-04-24T05:27:21;1.77;;;1.30;;
11731;SDS011;5922;53.734;10.258;2023-04-24T05:29:48;2.37;;;1.43;;
11731;SDS011;5922;53.734;10.258;2023-04-24T05:32:16;3.60;;;1.50;;
11731;SDS011;5922;53.734;10.258;2023-04-24T05:34:46;1.60;;;1.50;;
11731;SDS011;5922;53.734;10.258;2023-04-24T05:37:13;2.70;;;1.40;;
11731;SDS011;5922;53.734;10.258;2023-04-24T05:39:42;1.40;;;1.30;;
11731;SDS011;5922;53.734;10.258;2023-04-24T05:42:09;1.60;;;1.50;;
11731;SDS011;5922;53.734;10.258;2023-04-24T05:44:36;2.07;;;1.30;;
11731;SDS011;5922;53.734;10.258;2023-04-24T05:47:04;1.43;;;1.33;;
11731;SDS011;5922;53.734;10.258;2023-04-24T05:49:31;2.20;;;1.30;;
11731;SDS011;5922;53.734;10.258;2023-04-24T05:51:58;1.10;;;1.10;;
11731;SDS011;5922;53.734;10.258;2023-04-24T05:54:25;1.50;;;1.40;;
11731;SDS011;5922;53.734;10.258;2023-04-24T05:56:54;1.10;;;1.10;;
11731;SDS011;5922;53.734;10.258;2023-04-24T05:59:21;1.10;;;1.10;;
11731;SDS011;5922;53.734;10.258;2023-04-24T06:01:48;2.50;;;1.10;;
11731;SDS011;5922;53.734;10.258;2023-04-24T06:04:15;1.20;;;1.10;;
11731;SDS011;5922;53.734;10.258;2023-04-24T06:06:43;1.67;;;1.10;;
11731;SDS011;5922;53.734;10.258;2023-04-24T06:09:10;1.53;;;1.40;;
11731;SDS011;5922;53.734;10.258;2023-04-24T06:11:37;1.30;;;1.20;;
11731;SDS011;5922;53.734;10.258;2023-04-24T06:14:06;1.43;;;1.30;;
11731;SDS011;5922;53.734;10.258;2023-04-24T06:16:33;1.13;;;1.13;;
11731;SDS011;5922;53.734;10.258;2023-04-24T06:19:00;1.53;;;1.40;;
11731;SDS011;5922;53.734;10.258;2023-04-24T06:21:27;1.33;;;1.23;;
11731;SDS011;5922;53.734;10.258;2023-04-24T06:23:55;2.60;;;1.37;;
11731;SDS011;5922;53.734;10.258;2023-04-24T06:26:23;1.50;;;1.40;;
11731;SDS011;5922;53.734;10.258;2023-04-24T06:28:51;1.53;;;1.30;;
11731;SDS011;5922;53.734;10.258;2023-04-24T06:31:20;2.57;;;1.30;;
11731;SDS011;5922;53.734;10.258;2023-04-24T06:33:48;2.63;;;1.30;;
11731;SDS011;5922;53.734;10.258;2023-04-24T06:36:15;1.60;;;1.50;;
11731;SDS011;5922;53.734;10.258;2023-04-24T06:38:42;3.23;;;1.40;;
11731;SDS011;5922;53.734;10.258;2023-04-24T06:41:10;2.53;;;1.40;;
11731;SDS011;5922;53.734;10.258;2023-04-24T06:43:38;1.57;;;1.47;;
11731;SDS011;5922;53.734;10.258;2023-04-24T06:46:05;2.13;;;1.37;;
11731;SDS011;5922;53.734;10.258;2023-04-24T06:48:34;1.30;;;1.20;;
11731;SDS011;5922;53.734;10.258;2023-04-24T06:51:01;2.13;;;1.43;;
11731;SDS011;5922;53.734;10.258;2023-04-24T06:53:28;2.03;;;1.40;;
11731;SDS011;5922;53.734;10.258;2023-04-24T06:55:55;3.30;;;1.30;;
11731;SDS011;5922;53.734;10.258;2023-04-24T06:58:23;1.90;;;1.40;;
11731;SDS011;5922;53.734;10.258;2023-04-24T07:00:50;1.50;;;1.40;;
11731;SDS011;5922;53.734;10.258;2023-04-24T07:03:18;1.20;;;1.10;;
11731;SDS011;5922;53.734;10.258;2023-04-24T07:05:46;1.67;;;1.57;;
11731;SDS011;5922;53.734;10.258;2023-04-24T07:08:14;1.50;;;1.40;;
11731;SDS011;5922;53.734;10.258;2023-04-24T07:10:43;1.30;;;1.20;;
11731;SDS011;5922;53.734;10.258;2023-04-24T07:13:10;2.20;;;1.30;;
11731;SDS011;5922;53.734;10.258;2023-04-24T07:15:38;1.57;;;1.43;;
11731;SDS011;5922;53.734;10.258;2023-04-24T07:18:06;3.40;;;1.30;;
11731;SDS011;5922;53.734;10.258;2023-04-24T07:20:34;1.30;;;1.20;;
11731;SDS011;5922;53.734;10.258;2023-04-24T07:23:03;1.73;;;1.50;;
11731;SDS011;5922;53.734;10.258;2023-04-24T07:25:30;3.93;;;2.00;;
11731;SDS011;5922;53.734;10.258;2023-04-24T07:27:58;3.50;;;1.33;;
11731;SDS011;5922;53.734;10.258;2023-04-24T07:30:25;2.30;;;1.40;;
11731;SDS011;5922;53.734;10.258;2023-04-24T07:32:53;1.40;;;1.30;;
11731;SDS011;5922;53.734;10.258;2023-04-24T07:35:21;1.53;;;1.43;;
11731;SDS011;5922;53.734;10.258;2023-04-24T07:37:50;1.50;;;1.40;;
11731;SDS011;5922;53.734;10.258;2023-04-24T07:40:19;1.57;;;1.47;;
11731;SDS011;5922;53.734;10.258;2023-04-24T07:42:46;5.47;;;1.50;;
11731;SDS011;5922;53.734;10.258;2023-04-24T07:45:16;2.00;;;1.70;;
11731;SDS011;5922;53.734;10.258;2023-04-24T07:47:46;1.57;;;1.43;;
11731;SDS011;5922;53.734;10.258;2023-04-24T07:50:13;1.83;;;1.67;;
11731;SDS011;5922;53.734;10.258;2023-04-24T07:52:40;3.60;;;1.70;;
11731;SDS011;5922;53.734;10.258;2023-04-24T07:55:07;1.77;;;1.67;;
11731;SDS011;5922;53.734;10.258;2023-04-24T07:57:36;3.00;;;1.93;;
11731;SDS011;5922;53.734;10.258;2023-04-24T08:00:04;2.17;;;1.97;;
11731;SDS011;5922;53.734;10.258;2023-04-24T08:02:31;1.60;;;1.50;;
11731;SDS011;5922;53.734;10.258;2023-04-24T08:04:59;1.70;;;1.60;;
11731;SDS011;5922;53.734;10.258;2023-04-24T08:07:26;2.03;;;1.90;;
11731;SDS011;5922;53.734;10.258;2023-04-24T08:09:53;4.03;;;1.90;;
11731;SDS011;5922;53.734;10.258;2023-04-24T08:12:20;1.67;;;1.57;;
11731;SDS011;5922;53.734;10.258;2023-04-24T08:14:49;1.80;;;1.70;;
11731;SDS011;5922;53.734;10.258;2023-04-24T08:17:17;1.97;;;1.83;;
11731;SDS011;5922;53.734;10.258;2023-04-24T08:19:44;2.43;;;2.23;;
11731;SDS011;5922;53.734;10.258;2023-04-24T08:22:13;3.00;;;2.10;;
11731;SDS011;5922;53.734;10.258;2023-04-24T08:24:41;2.00;;;1.90;;
11731;SDS011;5922;53.734;10.258;2023-04-24T08:27:08;1.90;;;1.80;;
11731;SDS011;5922;53.734;10.258;2023-04-24T08:29:36;4.20;;;2.10;;
11731;SDS011;5922;53.734;10.258;2023-04-24T08:32:04;2.57;;;2.20;;
11731;SDS011;5922;53.734;10.258;2023-04-24T08:34:31;2.30;;;2.10;;
11731;SDS011;5922;53.734;10.258;2023-04-24T08:36:59;2.60;;;2.40;;
11731;SDS011;5922;53.734;10.258;2023-04-24T08:39:26;2.40;;;2.20;;
11731;SDS011;5922;53.734;10.258;2023-04-24T08:41:54;3.10;;;2.40;;
11731;SDS011;5922;53.734;10.258;2023-04-24T08:44:22;5.50;;;2.60;;
11731;SDS011;5922;53.734;10.258;2023-04-24T08:46:49;4.60;;;2.40;;
11731;SDS011;5922;53.734;10.258;2023-04-24T08:49:17;3.10;;;2.53;;
11731;SDS011;5922;53.734;10.258;2023-04-24T08:51:45;2.50;;;2.30;;
11731;SDS011;5922;53.734;10.258;2023-04-24T08:54:13;3.40;;;2.40;;
11731;SDS011;5922;53.734;10.258;2023-04-24T08:56:40;2.90;;;2.63;;
11731;SDS011;5922;53.734;10.258;2023-04-24T08:59:10;3.43;;;2.87;;
11731;SDS011;5922;53.734;10.258;2023-04-24T09:01:38;5.17;;;2.73;;
11731;SDS011;5922;53.734;10.258;2023-04-24T09:04:06;3.00;;;2.70;;
11731;SDS011;5922;53.734;10.258;2023-04-24T09:06:36;3.37;;;3.07;;
11731;SDS011;5922;53.734;10.258;2023-04-24T09:09:03;3.63;;;3.10;;
11731;SDS011;5922;53.734;10.258;2023-04-24T09:11:30;2.87;;;2.67;;
11731;SDS011;5922;53.734;10.258;2023-04-24T09:13:58;5.27;;;3.37;;
11731;SDS011;5922;53.734;10.258;2023-04-24T09:16:26;3.00;;;2.80;;
11731;SDS011;5922;53.734;10.258;2023-04-24T09:18:54;3.83;;;3.53;;
11731;SDS011;5922;53.734;10.258;2023-04-24T09:21:22;3.63;;;3.33;;
11731;SDS011;5922;53.734;10.258;2023-04-24T09:23:59;3.87;;;3.47;;
11731;SDS011;5922;53.734;10.258;2023-04-24T09:26:28;3.50;;;3.20;;
11731;SDS011;5922;53.734;10.258;2023-04-24T09:28:57;3.10;;;2.90;;
11731;SDS011;5922;53.734;10.258;2023-04-24T09:31:26;3.20;;;3.00;;
11731;SDS011;5922;53.734;10.258;2023-04-24T09:33:54;3.83;;;3.40;;
11731;SDS011;5922;53.734;10.258;2023-04-24T09:36:26;3.10;;;2.90;;
11731;SDS011;5922;53.734;10.258;2023-04-24T09:38:57;3.87;;;3.27;;
11731;SDS011;5922;53.734;10.258;2023-04-24T09:41:26;3.67;;;3.37;;
11731;SDS011;5922;53.734;10.258;2023-04-24T09:43:54;4.20;;;3.40;;
11731;SDS011;5922;53.734;10.258;2023-04-24T09:46:28;3.43;;;3.13;;
11731;SDS011;5922;53.734;10.258;2023-04-24T09:48:55;3.27;;;2.97;;
11731;SDS011;5922;53.734;10.258;2023-04-24T09:51:33;5.57;;;3.57;;
11731;SDS011;5922;53.734;10.258;2023-04-24T09:54:00;3.40;;;3.10;;
11731;SDS011;5922;53.734;10.258;2023-04-24T09:56:29;3.50;;;3.20;;
11731;SDS011;5922;53.734;10.258;2023-04-24T09:59:04;3.40;;;3.10;;
11731;SDS011;5922;53.734;10.258;2023-04-24T10:01:31;4.77;;;2.90;;
11731;SDS011;5922;53.734;10.258;2023-04-24T10:03:59;5.60;;;3.13;;
11731;SDS011;5922;53.734;10.258;2023-04-24T10:06:29;3.50;;;3.23;;
11731;SDS011;5922;53.734;10.258;2023-04-24T10:08:57;3.57;;;3.27;;
11731;SDS011;5922;53.734;10.258;2023-04-24T10:11:24;3.50;;;3.20;;
11731;SDS011;5922;53.734;10.258;2023-04-24T10:13:53;3.60;;;3.30;;
11731;SDS011;5922;53.734;10.258;2023-04-24T10:16:22;3.70;;;3.40;;
11731;SDS011;5922;53.734;10.258;2023-04-24T10:18:52;3.77;;;3.47;;
11731;SDS011;5922;53.734;10.258;2023-04-24T10:21:20;3.50;;;3.20;;
11731;SDS011;5922;53.734;10.258;2023-04-24T10:23:47;3.53;;;3.23;;
11731;SDS011;5922;53.734;10.258;2023-04-24T10:26:15;3.80;;;3.37;;
11731;SDS011;5922;53.734;10.258;2023-04-24T10:28:44;4.23;;;3.83;;
11731;SDS011;5922;53.734;10.258;2023-04-24T10:31:13;4.20;;;3.80;;
11731;SDS011;5922;53.734;10.258;2023-04-24T10:33:41;5.43;;;4.23;;
11731;SDS011;5922;53.734;10.258;2023-04-24T10:36:09;4.20;;;3.80;;
11731;SDS011;5922;53.734;10.258;2023-04-24T10:38:36;4.83;;;4.17;;
11731;SDS011;5922;53.734;10.258;2023-04-24T10:41:08;5.33;;;4.10;;
11731;SDS011;5922;53.734;10.258;2023-04-24T10:43:41;4.30;;;3.90;;
11731;SDS011;5922;53.734;10.258;2023-04-24T10:46:08;5.40;;;4.10;;
11731;SDS011;5922;53.734;10.258;2023-04-24T10:48:38;4.93;;;4.50;;
11731;SDS011;5922;53.734;10.258;2023-04-24T10:51:11;4.57;;;4.17;;
11731;SDS011;5922;53.734;10.258;2023-04-24T10:53:39;5.43;;;4.70;;
11731;SDS011;5922;53.734;10.258;2023-04-24T10:56:06;8.60;;;4.97;;
11731;SDS011;5922;53.734;10.258;2023-04-24T10:58:38;5.40;;;4.90;;
11731;SDS011;5922;53.734;10.258;2023-04-24T11:01:05;4.97;;;4.47;;
11731;SDS011;5922;53.734;10.258;2023-04-24T11:03:33;5.10;;;4.60;;
11731;SDS011;5922;53.734;10.258;2023-04-24T11:06:03;5.47;;;4.80;;
11731;SDS011;5922;53.734;10.258;2023-04-24T11:08:32;5.30;;;4.80;;
11731;SDS011;5922;53.734;10.258;2023-04-24T11:11:00;5.77;;;5.10;;
11731;SDS011;5922;53.734;10.258;2023-04-24T11:16:13;5.87;;;5.37;;
11731;SDS011;5922;53.734;10.258;2023-04-24T11:18:41;7.10;;;5.70;;
11731;SDS011;5922;53.734;10.258;2023-04-24T11:21:12;6.83;;;6.00;;
11731;SDS011;5922;53.734;10.258;2023-04-24T11:23:39;7.27;;;6.07;;
11731;SDS011;5922;53.734;10.258;2023-04-24T11:26:10;7.00;;;6.40;;
11731;SDS011;5922;53.734;10.258;2023-04-24T11:28:43;8.53;;;6.80;;
11731;SDS011;5922;53.734;10.258;2023-04-24T11:34:05;8.07;;;7.27;;
11731;SDS011;5922;53.734;10.258;2023-04-24T11:36:35;8.90;;;6.90;;
11731;SDS011;5922;53.734;10.258;2023-04-24T11:39:06;8.17;;;7.03;;
11731;SDS011;5922;53.734;10.258;2023-04-24T11:44:11;7.73;;;6.90;;
11731;SDS011;5922;53.734;10.258;2023-04-24T11:46:40;10.30;;;7.23;;
11731;SDS011;5922;53.734;10.258;2023-04-24T11:49:10;8.73;;;7.87;;
11731;SDS011;5922;53.734;10.258;2023-04-24T11:51:40;8.23;;;7.43;;
11731;SDS011;5922;53.734;10.258;2023-04-24T11:54:07;10.60;;;7.53;;
11731;SDS011;5922;53.734;10.258;2023-04-24T11:56:35;9.83;;;7.67;;
11731;SDS011;5922;53.734;10.258;2023-04-24T11:59:03;8.33;;;6.70;;
11731;SDS011;5922;53.734;10.258;2023-04-24T12:01:42;7.77;;;6.27;;
11731;SDS011;5922;53.734;10.258;2023-04-24T12:04:10;7.87;;;7.07;;
11731;SDS011;5922;53.734;10.258;2023-04-24T12:06:37;8.63;;;7.07;;
11731;SDS011;5922;53.734;10.258;2023-04-24T12:09:06;7.40;;;6.60;;
11731;SDS011;5922;53.734;10.258;2023-04-24T12:11:34;7.67;;;6.83;;
11731;SDS011;5922;53.734;10.258;2023-04-24T12:14:09;7.23;;;6.53;;
11731;SDS011;5922;53.734;10.258;2023-04-24T12:16:36;6.57;;;5.93;;
11731;SDS011;5922;53.734;10.258;2023-04-24T12:19:03;6.90;;;6.30;;
11731;SDS011;5922;53.734;10.258;2023-04-24T12:21:34;7.13;;;6.13;;
11731;SDS011;5922;53.734;10.258;2023-04-24T12:24:01;8.17;;;7.27;;
11731;SDS011;5922;53.734;10.258;2023-04-24T12:26:30;7.13;;;6.17;;
11731;SDS011;5922;53.734;10.258;2023-04-24T12:29:01;7.53;;;6.83;;
11731;SDS011;5922;53.734;10.258;2023-04-24T12:31:28;7.73;;;5.80;;
11731;SDS011;5922;53.734;10.258;2023-04-24T12:33:57;5.27;;;4.77;;
11731;SDS011;5922;53.734;10.258;2023-04-24T12:36:24;6.43;;;5.57;;
11731;SDS011;5922;53.734;10.258;2023-04-24T12:38:53;6.37;;;5.30;;
11731;SDS011;5922;53.734;10.258;2023-04-24T12:41:20;6.07;;;4.70;;
11731;SDS011;5922;53.734;10.258;2023-04-24T12:43:52;5.57;;;4.93;;
11731;SDS011;5922;53.734;10.258;2023-04-24T12:46:20;6.80;;;4.93;;
11731;SDS011;5922;53.734;10.258;2023-04-24T12:48:47;7.30;;;5.47;;
11731;SDS011;5922;53.734;10.258;2023-04-24T12:51:14;5.40;;;4.90;;
11731;SDS011;5922;53.734;10.258;2023-04-24T12:53:42;5.37;;;4.77;;
11731;SDS011;5922;53.734;10.258;2023-04-24T12:56:09;5.40;;;4.90;;
11731;SDS011;5922;53.734;10.258;2023-04-24T12:58:37;4.67;;;4.20;;
11731;SDS011;5922;53.734;10.258;2023-04-24T13:01:05;5.10;;;4.60;;
11731;SDS011;5922;53.734;10.258;2023-04-24T13:03:33;5.87;;;4.83;;
11731;SDS011;5922;53.734;10.258;2023-04-24T13:06:00;5.40;;;4.53;;
11731;SDS011;5922;53.734;10.258;2023-04-24T13:08:27;5.67;;;4.37;;
11731;SDS011;5922;53.734;10.258;2023-04-24T13:10:55;4.97;;;4.23;;
11731;SDS011;5922;53.734;10.258;2023-04-24T13:13:24;6.07;;;5.47;;
11731;SDS011;5922;53.734;10.258;2023-04-24T13:16:00;5.67;;;5.07;;
11731;SDS011;5922;53.734;10.258;2023-04-24T13:18:38;5.40;;;4.90;;
11731;SDS011;5922;53.734;10.258;2023-04-24T13:21:11;5.20;;;4.70;;
11731;SDS011;5922;53.734;10.258;2023-04-24T13:23:39;4.90;;;4.47;;
11731;SDS011;5922;53.734;10.258;2023-04-24T13:26:07;5.43;;;4.90;;
11731;SDS011;5922;53.734;10.258;2023-04-24T13:28:36;5.23;;;4.77;;
11731;SDS011;5922;53.734;10.258;2023-04-24T13:31:04;5.37;;;4.87;;
11731;SDS011;5922;53.734;10.258;2023-04-24T13:33:41;5.13;;;4.63;;
11731;SDS011;5922;53.734;10.258;2023-04-24T13:36:10;6.87;;;4.67;;
11731;SDS011;5922;53.734;10.258;2023-04-24T13:44:54;3.87;;;3.47;;
11731;SDS011;5922;53.734;10.258;2023-04-24T13:50:23;4.43;;;4.03;;
11731;SDS011;5922;53.734;10.258;2023-04-24T13:52:51;4.27;;;3.77;;
11731;SDS011;5922;53.734;10.258;2023-04-24T13:55:19;4.27;;;3.83;;
11731;SDS011;5922;53.734;10.258;2023-04-24T13:57:54;5.37;;;4.40;;
11731;SDS011;5922;53.734;10.258;2023-04-24T14:00:38;5.47;;;4.77;;
11731;SDS011;5922;53.734;10.258;2023-04-24T14:03:06;6.70;;;5.03;;
11731;SDS011;5922;53.734;10.258;2023-04-24T14:05:37;5.90;;;4.53;;
11731;SDS011;5922;53.734;10.258;2023-04-24T14:08:05;5.70;;;5.20;;
11731;SDS011;5922;53.734;10.258;2023-04-24T14:10:51;6.03;;;5.43;;
11731;SDS011;5922;53.734;10.258;2023-04-24T14:16:26;6.33;;;5.27;;
11731;SDS011;5922;53.734;10.258;2023-04-24T14:19:05;6.10;;;5.50;;
11731;SDS011;5922;53.734;10.258;2023-04-24T14:21:52;6.03;;;5.43;;
11731;SDS011;5922;53.734;10.258;2023-04-24T14:24:31;5.10;;;4.60;;
11731;SDS011;5922;53.734;10.258;2023-04-24T14:26:58;5.60;;;4.97;;
11731;SDS011;5922;53.734;10.258;2023-04-24T14:29:29;4.07;;;3.67;;
11731;SDS011;5922;53.734;10.258;2023-04-24T14:32:01;4.50;;;4.10;;
11731;SDS011;5922;53.734;10.258;2023-04-24T14:34:47;7.20;;;4.43;;
11731;SDS011;5922;53.734;10.258;2023-04-24T14:37:35;5.83;;;4.40;;
11731;SDS011;5922;53.734;10.258;2023-04-24T14:43:08;5.83;;;4.70;;
11731;SDS011;5922;53.734;10.258;2023-04-24T14:45:46;5.40;;;4.00;;
11731;SDS011;5922;53.734;10.258;2023-04-24T14:48:13;4.60;;;4.20;;
11731;SDS011;5922;53.734;10.258;2023-04-24T14:51:08;4.20;;;3.90;;
11731;SDS011;5922;53.734;10.258;2023-04-24T14:53:41;4.77;;;3.83;;
11731;SDS011;5922;53.734;10.258;2023-04-24T14:56:11;4.57;;;4.17;;
11731;SDS011;5922;53.734;10.258;2023-04-24T14:58:40;4.70;;;4.30;;
11731;SDS011;5922;53.734;10.258;2023-04-24T15:01:27;4.33;;;3.90;;
11731;SDS011;5922;53.734;10.258;2023-04-24T15:03:58;4.30;;;3.90;;
11731;SDS011;5922;53.734;10.258;2023-04-24T15:06:25;4.37;;;4.00;;
11731;SDS011;5922;53.734;10.258;2023-04-24T15:08:54;4.30;;;3.90;;
11731;SDS011;5922;53.734;10.258;2023-04-24T15:14:33;5.47;;;4.97;;
11731;SDS011;5922;53.734;10.258;2023-04-24T15:17:02;5.10;;;4.70;;
11731;SDS011;5922;53.734;10.258;2023-04-24T15:22:28;6.07;;;5.57;;
11731;SDS011;5922;53.734;10.258;2023-04-24T15:24:57;6.27;;;5.73;;
11731;SDS011;5922;53.734;10.258;2023-04-24T15:27:27;7.03;;;6.00;;